Time;durP1;ratioP1;P1;durP2;ratioP2;P2;SDS_P1;SDS_P2;PMS_P1;PMS_P2;Temp;Humidity;BMP_temperature;BMP_pressure;BME280_temperature;BME280_humidity;BME280_pressure;Samples;Min_cycle;Max_cycle;Signal;HPM_P1;HPM_P2
2023/09/20 00:01:46;;;;;;;32.20;30.60;;;23.30;79.80;;;;;;5064758;28;20493;-58
2023/09/20 00:04:14;;;;;;;31.87;30.57;;;23.30;79.80;;;;;;5063020;28;20822;-57
2023/09/20 00:06:41;;;;;;;32.17;30.80;;;23.30;79.90;;;;;;5064312;28;20447;-57
2023/09/20 00:09:08;;;;;;;33.10;31.80;;;23.30;79.90;;;;;;5064240;28;20474;-56
2023/09/20 00:11:36;;;;;;;32.20;30.93;;;23.20;80.00;;;;;;5061611;28;20483;-55
2023/09/20 00:14:03;;;;;;;31.67;30.47;;;23.30;80.20;;;;;;5060568;28;20475;-58
2023/09/20 00:16:30;;;;;;;32.90;31.50;;;23.20;80.00;;;;;;5055396;28;20494;-57
2023/09/20 00:18:57;;;;;;;31.30;29.90;;;23.20;80.30;;;;;;5061291;28;20467;-58
2023/09/20 00:21:23;;;;;;;31.43;30.23;;;23.20;80.30;;;;;;5061876;28;20869;-56
2023/09/20 00:23:50;;;;;;;32.20;30.97;;;23.20;80.50;;;;;;5060495;28;20450;-58
2023/09/20 00:26:18;;;;;;;30.47;29.27;;;23.20;80.90;;;;;;5063515;28;20494;-55
2023/09/20 00:28:48;;;;;;;32.60;31.20;;;23.20;80.70;;;;;;5060825;28;20436;-57
2023/09/20 00:31:16;;;;;;;31.17;29.50;;;23.20;81.20;;;;;;5060237;28;20451;-58
2023/09/20 00:33:43;;;;;;;31.43;30.23;;;23.20;81.20;;;;;;5059774;28;20443;-57
2023/09/20 00:36:10;;;;;;;31.80;30.30;;;23.20;81.20;;;;;;5063401;28;20494;-59
2023/09/20 00:38:37;;;;;;;30.83;29.53;;;23.20;81.30;;;;;;5060777;28;21000;-57
2023/09/20 00:41:06;;;;;;;30.60;29.40;;;23.20;81.60;;;;;;5060381;28;20476;-58
2023/09/20 00:43:33;;;;;;;30.87;29.67;;;23.20;81.60;;;;;;5062004;28;20452;-58
2023/09/20 00:46:02;;;;;;;31.03;29.83;;;23.20;81.60;;;;;;5063881;28;20993;-57
2023/09/20 00:48:30;;;;;;;32.20;31.00;;;23.20;81.80;;;;;;5061562;28;20794;-57
2023/09/20 00:50:58;;;;;;;32.67;31.10;;;23.20;82.00;;;;;;5060197;28;20446;-58
2023/09/20 00:53:25;;;;;;;32.47;31.07;;;23.10;81.80;;;;;;5061140;28;20503;-56
2023/09/20 00:55:54;;;;;;;31.17;29.97;;;23.10;82.00;;;;;;5063788;28;20491;-57
2023/09/20 00:58:21;;;;;;;32.10;30.90;;;23.10;82.20;;;;;;5063192;28;20482;-58
2023/09/20 01:00:52;;;;;;;32.00;30.80;;;23.10;82.10;;;;;;5061005;28;20480;-58
2023/09/20 01:03:21;;;;;;;32.70;31.40;;;23.10;82.40;;;;;;5058769;28;20432;-59
2023/09/20 01:05:49;;;;;;;32.90;31.47;;;23.10;82.40;;;;;;5056017;28;20977;-58
2023/09/20 01:08:19;;;;;;;32.50;31.10;;;23.10;82.60;;;;;;5064480;28;20523;-56
2023/09/20 01:10:46;;;;;;;32.60;31.30;;;23.10;82.80;;;;;;5060840;28;20436;-56
2023/09/20 01:13:15;;;;;;;32.10;30.77;;;23.10;83.00;;;;;;5060348;28;20533;-56
2023/09/20 01:15:42;;;;;;;31.80;30.47;;;23.10;83.00;;;;;;5062168;28;20489;-58
2023/09/20 01:18:09;;;;;;;31.47;30.27;;;23.10;83.30;;;;;;5059827;28;20447;-56
2023/09/20 01:20:40;;;;;;;32.07;30.80;;;23.10;83.20;;;;;;5057286;28;20870;-55
2023/09/20 01:23:08;;;;;;;33.60;32.10;;;23.10;83.20;;;;;;5063480;28;20443;-57
2023/09/20 01:25:36;;;;;;;30.37;29.27;;;23.10;83.30;;;;;;5065697;28;20464;-54
2023/09/20 01:28:06;;;;;;;33.30;32.03;;;23.10;83.50;;;;;;5066617;28;20509;-55
2023/09/20 01:30:34;;;;;;;33.57;32.33;;;23.10;83.70;;;;;;5064340;28;20504;-55
2023/09/20 01:33:04;;;;;;;32.93;31.73;;;23.10;83.80;;;;;;5063674;28;20886;-53
2023/09/20 01:35:31;;;;;;;32.43;31.17;;;23.10;84.10;;;;;;5065971;28;20464;-58
2023/09/20 01:37:59;;;;;;;34.83;33.53;;;23.10;84.10;;;;;;5054606;28;20478;-52
2023/09/20 01:40:28;;;;;;;34.50;33.17;;;23.00;84.10;;;;;;5056258;28;20950;-53
2023/09/20 01:42:57;;;;;;;34.33;32.93;;;23.10;84.30;;;;;;5063276;28;20442;-53
2023/09/20 01:45:24;;;;;;;33.97;32.67;;;23.10;84.70;;;;;;5062872;28;20520;-56
2023/09/20 01:47:52;;;;;;;31.57;30.30;;;23.10;84.70;;;;;;5058858;28;20473;-57
2023/09/20 01:50:21;;;;;;;35.00;33.37;;;23.00;84.70;;;;;;5066275;28;20479;-56
2023/09/20 01:52:49;;;;;;;32.43;31.13;;;23.00;85.00;;;;;;5062882;28;20522;-58
2023/09/20 01:55:17;;;;;;;32.47;31.23;;;23.00;85.90;;;;;;5062869;28;20906;-57
2023/09/20 01:57:46;;;;;;;31.30;30.10;;;23.00;85.10;;;;;;5055204;28;20468;-56
2023/09/20 02:00:22;;;;;;;33.50;31.50;;;23.00;85.20;;;;;;5055183;28;20483;-58
2023/09/20 02:02:50;;;;;;;32.10;30.90;;;23.00;85.40;;;;;;5058513;28;20450;-58
2023/09/20 02:05:18;;;;;;;32.67;31.47;;;23.00;85.50;;;;;;5066089;28;20486;-56
2023/09/20 02:07:46;;;;;;;31.27;30.07;;;23.00;85.70;;;;;;5063117;28;20472;-53
2023/09/20 02:10:13;;;;;;;31.07;29.87;;;23.00;85.60;;;;;;5062828;28;20476;-56
2023/09/20 02:12:41;;;;;;;31.93;30.73;;;23.00;85.90;;;;;;5062713;28;20487;-56
2023/09/20 02:15:11;;;;;;;31.80;30.50;;;23.00;85.80;;;;;;5069454;28;20495;-55
2023/09/20 02:17:38;;;;;;;31.50;30.20;;;23.00;86.00;;;;;;5063204;28;20934;-53
2023/09/20 02:20:09;;;;;;;30.97;29.77;;;23.00;86.00;;;;;;5062847;28;20455;-57
2023/09/20 02:22:37;;;;;;;32.13;30.93;;;23.00;86.20;;;;;;5064940;28;20443;-57
2023/09/20 02:25:07;;;;;;;32.60;31.30;;;23.00;86.30;;;;;;5061359;28;20857;-55
2023/09/20 02:27:35;;;;;;;31.50;30.40;;;23.00;86.50;;;;;;5063885;28;20448;-55
2023/09/20 02:30:03;;;;;;;32.20;31.00;;;23.00;86.50;;;;;;5065910;28;20436;-56
2023/09/20 02:32:32;;;;;;;31.40;30.30;;;23.00;86.80;;;;;;5063632;28;20475;-57
2023/09/20 02:35:03;;;;;;;33.50;32.20;;;23.00;86.70;;;;;;5062346;28;20492;-56
2023/09/20 02:37:30;;;;;;;31.33;30.23;;;23.00;86.90;;;;;;5063903;28;20574;-55
2023/09/20 02:39:56;;;;;;;34.63;33.40;;;22.90;86.90;;;;;;5065873;28;20615;-57
2023/09/20 02:42:26;;;;;;;32.97;31.70;;;22.90;86.90;;;;;;5064143;28;20888;-56
2023/09/20 02:44:53;;;;;;;32.53;31.23;;;23.00;87.10;;;;;;5062950;28;20510;-57
2023/09/20 02:47:24;;;;;;;33.20;31.90;;;23.00;87.20;;;;;;5063017;28;20498;-56
2023/09/20 02:49:52;;;;;;;33.67;32.37;;;22.90;87.10;;;;;;5062009;28;20448;-55
2023/09/20 02:52:19;;;;;;;32.87;31.07;;;23.00;87.50;;;;;;5062493;28;20515;-56
2023/09/20 02:54:46;;;;;;;32.57;31.40;;;22.90;87.70;;;;;;5054281;28;20539;-57
2023/09/20 02:57:13;;;;;;;33.03;31.10;;;22.90;87.60;;;;;;5062761;28;20839;-58
2023/09/20 02:59:40;;;;;;;32.37;31.07;;;22.90;87.80;;;;;;5062236;28;20458;-57
2023/09/20 03:02:08;;;;;;;34.00;32.30;;;23.00;87.90;;;;;;5057517;28;20444;-58
2023/09/20 03:04:37;;;;;;;34.33;33.03;;;22.90;87.90;;;;;;5064832;28;20518;-56
2023/09/20 03:07:06;;;;;;;38.67;37.27;;;23.00;88.00;;;;;;5065887;28;20439;-55
2023/09/20 03:09:37;;;;;;;34.00;32.70;;;22.90;87.90;;;;;;5063975;28;20440;-54
2023/09/20 03:12:06;;;;;;;32.70;31.50;;;23.00;88.30;;;;;;5061762;28;20440;-54
2023/09/20 03:14:38;;;;;;;33.00;31.80;;;23.00;88.50;;;;;;5063861;28;20486;-53
2023/09/20 03:17:05;;;;;;;33.53;31.67;;;22.90;88.30;;;;;;5065824;28;20471;-56
2023/09/20 03:19:33;;;;;;;34.17;32.77;;;22.90;88.40;;;;;;5063616;28;21084;-57
2023/09/20 03:22:01;;;;;;;33.63;32.20;;;22.90;88.60;;;;;;5061569;28;20448;-54
2023/09/20 03:24:30;;;;;;;32.60;31.40;;;22.90;88.70;;;;;;5061084;28;20456;-56
2023/09/20 03:26:57;;;;;;;33.60;32.20;;;22.90;88.60;;;;;;5064897;28;20432;-56
2023/09/20 03:29:25;;;;;;;34.10;32.70;;;22.90;88.80;;;;;;5064114;28;20450;-57
2023/09/20 03:31:52;;;;;;;36.97;35.50;;;22.90;89.00;;;;;;5061096;28;20527;-53
2023/09/20 03:34:20;;;;;;;34.10;32.90;;;22.90;89.00;;;;;;5060817;28;20508;-57
2023/09/20 03:36:47;;;;;;;34.00;32.50;;;22.90;89.20;;;;;;5061429;28;20459;-54
2023/09/20 03:39:15;;;;;;;32.60;31.40;;;22.90;89.20;;;;;;5064527;28;20474;-55
2023/09/20 03:41:43;;;;;;;34.97;33.77;;;22.90;89.20;;;;;;5061332;28;20447;-55
2023/09/20 03:44:12;;;;;;;32.67;31.37;;;22.90;89.30;;;;;;5060755;28;20444;-57
2023/09/20 03:46:39;;;;;;;32.97;31.57;;;22.90;89.40;;;;;;5063539;28;20475;-58
2023/09/20 03:49:07;;;;;;;35.57;33.97;;;22.90;89.80;;;;;;5055875;28;20459;-57
2023/09/20 03:51:34;;;;;;;35.20;33.80;;;22.90;89.60;;;;;;5056924;28;20472;-57
2023/09/20 03:54:02;;;;;;;35.83;34.47;;;22.90;89.90;;;;;;5064469;28;20514;-56
2023/09/20 03:56:29;;;;;;;34.60;33.30;;;22.90;89.80;;;;;;5063785;28;20814;-59
2023/09/20 03:59:00;;;;;;;34.50;33.00;;;22.90;89.90;;;;;;5061460;28;20848;-57
2023/09/20 04:01:28;;;;;;;38.50;37.10;;;22.90;89.80;;;;;;5063404;28;20459;-58
2023/09/20 04:03:55;;;;;;;37.87;36.37;;;22.90;90.00;;;;;;5060441;28;20444;-56
2023/09/20 04:06:23;;;;;;;40.80;39.30;;;22.90;90.00;;;;;;5061445;28;20499;-57
2023/09/20 04:08:52;;;;;;;39.47;37.87;;;22.90;90.00;;;;;;5052959;28;20523;-59
2023/09/20 04:11:19;;;;;;;40.00;38.33;;;22.90;90.00;;;;;;5060661;28;20440;-57
2023/09/20 04:13:46;;;;;;;39.37;37.93;;;22.90;90.10;;;;;;5059757;28;20482;-58
2023/09/20 04:16:15;;;;;;;45.10;43.20;;;22.90;90.20;;;;;;5060562;28;20496;-58
2023/09/20 04:18:44;;;;;;;38.33;36.93;;;22.90;90.10;;;;;;5068707;28;20835;-57
2023/09/20 04:21:11;;;;;;;41.80;40.30;;;22.80;90.10;;;;;;5060186;28;20476;-57
2023/09/20 04:23:39;;;;;;;39.90;38.40;;;22.80;90.20;;;;;;5063029;28;20476;-56
2023/09/20 04:26:05;;;;;;;41.27;39.70;;;22.80;90.20;;;;;;5057329;28;20535;-58
2023/09/20 04:28:32;;;;;;;37.20;35.70;;;22.90;90.20;;;;;;5059904;28;20483;-58
2023/09/20 04:30:59;;;;;;;39.87;38.37;;;22.80;90.10;;;;;;5063617;28;20463;-57
2023/09/20 04:33:27;;;;;;;41.37;39.80;;;22.80;90.40;;;;;;5064078;28;20507;-57
2023/09/20 04:35:57;;;;;;;37.37;35.97;;;22.80;90.00;;;;;;5063930;28;20491;-56
2023/09/20 04:38:24;;;;;;;37.73;36.00;;;22.80;90.10;;;;;;5059023;28;20451;-57
2023/09/20 04:40:51;;;;;;;39.77;38.00;;;22.80;90.40;;;;;;5048526;28;20455;-58
2023/09/20 04:43:18;;;;;;;41.53;38.90;;;22.90;90.90;;;;;;5063235;28;20467;-51
2023/09/20 04:45:45;;;;;;;41.97;39.50;;;22.90;92.20;;;;;;5071881;28;20494;-53
2023/09/20 04:48:13;;;;;;;38.97;36.90;;;22.90;92.30;;;;;;5072334;28;20471;-53
2023/09/20 04:50:41;;;;;;;38.53;36.43;;;22.90;91.90;;;;;;5075531;28;20942;-50
2023/09/20 04:53:08;;;;;;;43.63;41.30;;;22.90;91.90;;;;;;5076049;28;20529;-52
2023/09/20 04:55:35;;;;;;;44.83;42.77;;;22.90;91.70;;;;;;5076652;28;20491;-52
2023/09/20 04:58:01;;;;;;;42.50;40.50;;;22.90;91.60;;;;;;5076498;28;20438;-53
2023/09/20 05:00:33;;;;;;;44.73;43.03;;;22.90;91.60;;;;;;5077013;28;20475;-54
2023/09/20 05:03:00;;;;;;;39.30;37.60;;;22.90;91.50;;;;;;5076856;28;20439;-56
2023/09/20 05:05:27;;;;;;;38.10;36.47;;;22.90;91.50;;;;;;5077044;28;20490;-57
2023/09/20 05:07:56;;;;;;;41.17;39.43;;;22.90;91.40;;;;;;5077041;28;20520;-52
2023/09/20 05:10:23;;;;;;;38.57;36.70;;;22.90;91.30;;;;;;5076696;28;20538;-55
2023/09/20 05:12:50;;;;;;;39.63;37.80;;;22.90;91.40;;;;;;5077087;28;20904;-54
2023/09/20 05:15:17;;;;;;;39.47;36.97;;;22.90;91.20;;;;;;5076264;28;20463;-56
2023/09/20 05:17:45;;;;;;;39.70;37.70;;;22.90;91.30;;;;;;5076990;28;20857;-53
2023/09/20 05:20:13;;;;;;;39.00;37.20;;;22.90;91.10;;;;;;5076637;28;20791;-52
2023/09/20 05:22:40;;;;;;;37.40;35.70;;;22.90;91.20;;;;;;5076169;28;20443;-52
2023/09/20 05:25:09;;;;;;;39.47;37.57;;;22.90;91.10;;;;;;5075962;28;20473;-52
2023/09/20 05:27:36;;;;;;;41.67;39.77;;;22.90;91.10;;;;;;5076316;28;20474;-54
2023/09/20 05:30:05;;;;;;;40.13;38.33;;;22.90;91.10;;;;;;5075597;28;20479;-56
2023/09/20 05:32:32;;;;;;;39.20;37.27;;;22.90;91.00;;;;;;5075392;28;20446;-55
2023/09/20 05:34:59;;;;;;;38.80;37.23;;;22.90;91.10;;;;;;5075099;28;20518;-57
2023/09/20 05:37:25;;;;;;;41.77;39.77;;;22.90;91.00;;;;;;5075167;28;20979;-53
2023/09/20 05:39:52;;;;;;;40.47;38.23;;;22.90;91.00;;;;;;5075262;28;20851;-57
2023/09/20 05:42:20;;;;;;;41.30;39.20;;;22.90;91.00;;;;;;5075141;28;20471;-55
2023/09/20 05:44:48;;;;;;;39.67;38.00;;;22.90;91.00;;;;;;5074760;28;20459;-56
2023/09/20 05:47:16;;;;;;;40.20;38.50;;;22.90;90.90;;;;;;5075187;28;20447;-56
2023/09/20 05:49:44;;;;;;;38.73;37.03;;;22.90;91.00;;;;;;5074832;28;20439;-52
2023/09/20 05:52:10;;;;;;;38.80;37.10;;;22.90;90.90;;;;;;5074881;28;20446;-54
2023/09/20 05:54:42;;;;;;;41.87;40.17;;;22.90;90.90;;;;;;5074558;28;20517;-54
2023/09/20 05:57:08;;;;;;;41.53;39.37;;;22.90;90.80;;;;;;5074885;28;20846;-54
2023/09/20 05:59:37;;;;;;;40.50;38.80;;;22.90;90.90;;;;;;5074720;28;20898;-53
2023/09/20 06:02:05;;;;;;;42.20;40.30;;;22.90;90.80;;;;;;5074426;28;20482;-56
2023/09/20 06:04:31;;;;;;;39.43;37.83;;;22.90;90.80;;;;;;5074463;28;20839;-56
2023/09/20 06:07:02;;;;;;;41.27;39.47;;;22.90;90.90;;;;;;5074655;28;20498;-54
2023/09/20 06:09:29;;;;;;;40.43;38.60;;;22.90;90.80;;;;;;5074670;28;20467;-54
2023/09/20 06:11:56;;;;;;;39.63;38.00;;;22.90;90.80;;;;;;5074542;28;20531;-52
2023/09/20 06:14:23;;;;;;;41.13;39.27;;;22.90;90.80;;;;;;5075174;28;20515;-55
2023/09/20 06:16:52;;;;;;;43.70;41.90;;;22.90;90.70;;;;;;5074417;28;20447;-53
2023/09/20 06:19:19;;;;;;;43.00;41.30;;;22.90;90.80;;;;;;5074387;28;20439;-55
2023/09/20 06:21:47;;;;;;;45.87;43.93;;;22.90;90.70;;;;;;5074689;28;20784;-54
2023/09/20 06:24:15;;;;;;;43.97;42.27;;;22.90;90.70;;;;;;5074004;28;20769;-55
2023/09/20 06:26:43;;;;;;;47.00;44.93;;;22.90;90.70;;;;;;5074219;28;20929;-54
2023/09/20 06:29:10;;;;;;;45.33;43.63;;;22.90;90.70;;;;;;5074500;28;20485;-55
2023/09/20 06:31:38;;;;;;;44.43;42.43;;;22.90;90.70;;;;;;5074360;28;20475;-54
2023/09/20 06:34:06;;;;;;;42.83;40.80;;;22.90;90.60;;;;;;5074064;28;20484;-55
2023/09/20 06:36:33;;;;;;;43.37;41.30;;;22.90;90.70;;;;;;5074277;28;20491;-52
2023/09/20 06:39:00;;;;;;;41.80;40.10;;;22.90;90.70;;;;;;5074300;28;20467;-51
2023/09/20 06:41:27;;;;;;;42.77;40.97;;;22.90;90.70;;;;;;5073840;28;20454;-55
2023/09/20 06:43:57;;;;;;;43.23;41.47;;;22.90;90.60;;;;;;5073803;28;20501;-55
2023/09/20 06:46:24;;;;;;;42.07;40.37;;;22.90;90.70;;;;;;5073929;28;20517;-52
2023/09/20 06:48:51;;;;;;;44.00;42.30;;;22.90;90.70;;;;;;5074089;28;20439;-55
2023/09/20 06:51:19;;;;;;;45.13;43.30;;;22.90;90.60;;;;;;5074289;28;20450;-51
2023/09/20 06:53:48;;;;;;;42.13;40.40;;;22.90;90.60;;;;;;5073684;28;20515;-54
2023/09/20 06:56:15;;;;;;;41.33;39.67;;;22.90;90.60;;;;;;5074475;28;20470;-58
2023/09/20 06:58:43;;;;;;;41.90;40.20;;;22.90;90.60;;;;;;5074258;28;20926;-57
2023/09/20 07:01:10;;;;;;;42.50;40.80;;;22.90;90.60;;;;;;5073949;28;20454;-54
2023/09/20 07:03:39;;;;;;;40.27;38.67;;;22.90;90.60;;;;;;5073289;28;20474;-53
2023/09/20 07:06:06;;;;;;;42.67;41.07;;;22.90;90.60;;;;;;5073716;28;20495;-55
2023/09/20 07:08:34;;;;;;;40.53;38.90;;;22.90;90.60;;;;;;5073410;28;20470;-54
2023/09/20 07:11:04;;;;;;;39.67;37.87;;;22.90;90.60;;;;;;5073467;28;20447;-57
2023/09/20 07:13:32;;;;;;;39.87;38.27;;;22.90;90.60;;;;;;5072881;28;20981;-53
2023/09/20 07:15:59;;;;;;;43.13;41.33;;;22.90;90.60;;;;;;5073416;28;20486;-53
2023/09/20 07:18:27;;;;;;;40.47;38.87;;;22.90;90.60;;;;;;5074350;28;20439;-54
2023/09/20 07:20:55;;;;;;;41.20;39.50;;;22.90;90.70;;;;;;5074315;28;20958;-54
2023/09/20 07:23:23;;;;;;;41.07;39.27;;;22.90;90.60;;;;;;5074214;28;20443;-52
2023/09/20 07:25:52;;;;;;;42.50;40.80;;;22.90;90.60;;;;;;5074095;28;20475;-52
2023/09/20 07:28:19;;;;;;;43.23;41.53;;;22.90;90.60;;;;;;5074131;28;20494;-53
2023/09/20 07:30:46;;;;;;;38.97;37.47;;;22.90;90.60;;;;;;5073223;28;20505;-55
2023/09/20 07:33:14;;;;;;;39.53;38.03;;;23.00;90.60;;;;;;5072819;28;20443;-55
2023/09/20 07:35:47;;;;;;;40.77;39.20;;;22.90;90.60;;;;;;5073025;28;20513;-55
2023/09/20 07:38:18;;;;;;;39.50;38.00;;;22.90;90.60;;;;;;5072960;28;20439;-53
2023/09/20 07:40:50;;;;;;;40.10;38.60;;;22.90;90.60;;;;;;5072853;28;20465;-52
2023/09/20 07:43:19;;;;;;;39.23;37.60;;;22.90;90.60;;;;;;5072510;28;20446;-57
2023/09/20 07:45:46;;;;;;;40.07;38.37;;;22.90;90.60;;;;;;5072822;28;20517;-56
2023/09/20 07:48:16;;;;;;;41.53;39.90;;;22.90;90.50;;;;;;5072970;28;20474;-50
2023/09/20 07:50:49;;;;;;;41.33;39.60;;;22.90;90.60;;;;;;5072744;28;20444;-50
2023/09/20 07:53:16;;;;;;;40.10;38.50;;;22.90;90.50;;;;;;5072447;28;20443;-55
2023/09/20 07:55:45;;;;;;;39.90;38.40;;;22.90;90.50;;;;;;5072372;28;20489;-52
2023/09/20 07:58:13;;;;;;;41.10;39.50;;;22.90;90.50;;;;;;5072621;28;20940;-55
2023/09/20 08:00:44;;;;;;;38.93;37.53;;;22.90;90.60;;;;;;5072380;28;20534;-55
2023/09/20 08:03:11;;;;;;;39.80;38.20;;;22.90;90.60;;;;;;5072563;28;20798;-55
2023/09/20 08:05:38;;;;;;;39.37;37.77;;;22.90;90.60;;;;;;5072406;28;20483;-54
2023/09/20 08:08:06;;;;;;;40.87;39.27;;;22.90;90.70;;;;;;5072446;28;20943;-53
2023/09/20 08:10:34;;;;;;;39.53;38.00;;;22.90;90.60;;;;;;5072289;28;20855;-56
2023/09/20 08:13:01;;;;;;;39.60;38.10;;;22.90;90.50;;;;;;5072334;28;20527;-56
2023/09/20 08:15:28;;;;;;;38.50;37.00;;;22.90;90.60;;;;;;5071956;28;20483;-54
2023/09/20 08:20:40;;;;;;;38.60;37.00;;;22.90;90.60;;;;;;5072638;28;20422;-55
2023/09/20 09:01:44;;;;;;;40.60;39.03;;;22.90;90.60;;;;;;5072831;28;21204;-52
2023/09/20 09:04:13;;;;;;;38.90;37.40;;;22.90;90.60;;;;;;5071830;28;20963;-53
2023/09/20 09:06:42;;;;;;;40.20;38.70;;;22.90;90.60;;;;;;5071710;28;20779;-55
2023/09/20 09:09:09;;;;;;;40.37;38.70;;;22.90;90.60;;;;;;5071617;28;20870;-54
2023/09/20 09:11:36;;;;;;;41.63;39.90;;;22.90;90.60;;;;;;5071741;28;20545;-51
2023/09/20 09:14:03;;;;;;;41.07;39.37;;;22.90;90.60;;;;;;5071272;28;20505;-51
2023/09/20 09:16:32;;;;;;;39.07;37.37;;;22.90;90.60;;;;;;5071615;28;20467;-55
2023/09/20 09:18:59;;;;;;;38.90;37.30;;;22.90;90.60;;;;;;5071755;28;20450;-51
2023/09/20 09:21:27;;;;;;;41.20;39.60;;;22.90;90.60;;;;;;5071508;28;20572;-53
2023/09/20 09:23:57;;;;;;;40.43;38.80;;;22.90;90.60;;;;;;5071457;28;20475;-54
2023/09/20 09:26:25;;;;;;;40.30;38.73;;;22.90;90.50;;;;;;5071452;28;20478;-54
2023/09/20 09:28:52;;;;;;;37.07;35.63;;;22.90;90.60;;;;;;5071415;28;20446;-54
2023/09/20 09:31:19;;;;;;;38.60;37.10;;;22.90;90.60;;;;;;5071322;28;20501;-55
2023/09/20 09:33:46;;;;;;;40.70;39.17;;;22.90;90.60;;;;;;5071742;28;20493;-55
2023/09/20 09:36:14;;;;;;;39.63;38.13;;;22.90;90.60;;;;;;5073832;28;20521;-50
2023/09/20 09:38:41;;;;;;;38.90;37.40;;;22.90;90.60;;;;;;5075595;28;20459;-53
2023/09/20 09:41:10;;;;;;;39.20;37.70;;;23.00;90.60;;;;;;5075252;28;20815;-53
2023/09/20 09:43:38;;;;;;;37.17;35.67;;;23.00;90.60;;;;;;5074806;28;20443;-56
2023/09/20 09:46:08;;;;;;;39.17;37.50;;;23.00;90.60;;;;;;5074998;28;21024;-50
2023/09/20 09:48:37;;;;;;;39.40;37.90;;;23.00;90.60;;;;;;5075282;28;20879;-50
2023/09/20 09:51:06;;;;;;;38.90;37.40;;;23.00;90.70;;;;;;5075044;28;20530;-56
2023/09/20 09:53:35;;;;;;;38.33;36.83;;;23.00;90.60;;;;;;5074862;28;20504;-56
2023/09/20 09:56:05;;;;;;;38.23;36.73;;;23.00;90.70;;;;;;5075009;28;21150;-56
2023/09/20 09:58:34;;;;;;;37.17;35.47;;;23.00;90.60;;;;;;5075261;28;20467;-52
2023/09/20 10:01:05;;;;;;;37.83;36.33;;;23.00;90.60;;;;;;5074864;28;20958;-53
2023/09/20 10:03:34;;;;;;;39.80;38.30;;;23.00;90.60;;;;;;5074729;28;20479;-53
2023/09/20 10:06:10;;;;;;;40.30;38.70;;;23.00;90.60;;;;;;5074674;28;20470;-53
2023/09/20 10:08:39;;;;;;;39.07;37.53;;;23.00;90.70;;;;;;5074391;28;20476;-57
2023/09/20 10:11:07;;;;;;;40.00;38.37;;;23.00;90.60;;;;;;5074793;28;20439;-54
2023/09/20 10:13:37;;;;;;;38.57;36.80;;;23.00;90.70;;;;;;5074160;28;20453;-54
2023/09/20 10:16:10;;;;;;;34.77;33.37;;;23.00;90.70;;;;;;5074273;28;20526;-50
2023/09/20 10:18:55;;;;;;;37.57;36.07;;;23.00;90.60;;;;;;5074429;28;20938;-53
2023/09/20 10:21:25;;;;;;;40.10;38.50;;;23.00;90.70;;;;;;5074442;28;20445;-53
2023/09/20 10:23:57;;;;;;;38.83;37.27;;;23.00;90.70;;;;;;5074384;28;20443;-54
2023/09/20 10:26:26;;;;;;;37.03;35.53;;;23.00;90.70;;;;;;5074426;28;20471;-53
2023/09/20 10:28:58;;;;;;;38.03;36.53;;;23.00;90.70;;;;;;5074312;28;20496;-57
2023/09/20 10:31:29;;;;;;;39.20;37.70;;;23.00;90.70;;;;;;5074288;28;20454;-54
2023/09/20 10:33:57;;;;;;;37.40;35.90;;;23.10;90.80;;;;;;5074345;28;20447;-56
2023/09/20 10:36:25;;;;;;;38.83;37.33;;;23.10;90.80;;;;;;5074073;28;20542;-56
2023/09/20 10:39:16;;;;;;;38.10;36.60;;;23.10;90.80;;;;;;5074242;28;20486;-58
2023/09/20 10:41:44;;;;;;;38.37;36.87;;;23.10;90.70;;;;;;5074300;28;20492;-58
2023/09/20 10:44:28;;;;;;;38.80;37.30;;;23.10;90.80;;;;;;5074069;28;20478;-57
2023/09/20 10:46:56;;;;;;;39.97;38.37;;;23.10;90.80;;;;;;5073484;28;20443;-52
2023/09/20 10:49:41;;;;;;;40.20;38.67;;;23.10;90.80;;;;;;5073945;28;20458;-56
2023/09/20 10:52:08;;;;;;;40.67;39.07;;;23.10;90.80;;;;;;5074238;28;20435;-57
2023/09/20 10:54:36;;;;;;;41.07;39.50;;;23.10;90.80;;;;;;5073942;28;20502;-55
2023/09/20 10:57:09;;;;;;;38.17;36.67;;;23.10;90.80;;;;;;5074058;28;20534;-57
2023/09/20 10:59:41;;;;;;;40.10;38.60;;;23.10;90.80;;;;;;5074045;28;20440;-57
2023/09/20 11:02:12;;;;;;;38.30;36.80;;;23.10;90.80;;;;;;5074088;28;20443;-53
2023/09/20 11:04:40;;;;;;;36.93;35.43;;;23.10;90.80;;;;;;5073688;28;20513;-54
2023/09/20 11:07:09;;;;;;;35.23;33.83;;;23.10;90.80;;;;;;5074010;28;20479;-55
2023/09/20 11:09:38;;;;;;;35.40;34.00;;;23.10;90.70;;;;;;5073816;28;20447;-57
2023/09/20 11:12:07;;;;;;;38.17;36.67;;;23.10;90.70;;;;;;5073676;28;20477;-52
2023/09/20 11:14:38;;;;;;;36.90;35.40;;;23.10;90.80;;;;;;5073303;28;20501;-56
2023/09/20 11:17:05;;;;;;;37.57;36.07;;;23.10;90.80;;;;;;5073510;28;20870;-56
2023/09/20 11:19:33;;;;;;;33.87;32.57;;;23.10;90.70;;;;;;5073369;28;20930;-56
2023/09/20 11:22:01;;;;;;;35.43;34.03;;;23.10;90.70;;;;;;5073448;28;20439;-52
2023/09/20 11:24:28;;;;;;;34.23;32.83;;;23.10;90.70;;;;;;5073157;28;20443;-58
2023/09/20 11:26:56;;;;;;;36.60;35.00;;;23.10;90.70;;;;;;5073187;28;20463;-55
2023/09/20 11:29:24;;;;;;;35.00;33.60;;;23.20;90.70;;;;;;5073440;28;20439;-57
2023/09/20 11:31:55;;;;;;;36.63;35.23;;;23.20;90.70;;;;;;5073565;28;20474;-55
2023/09/20 11:34:23;;;;;;;39.23;37.60;;;23.20;90.70;;;;;;5072868;28;20474;-56
2023/09/20 11:36:53;;;;;;;37.50;36.00;;;23.20;90.70;;;;;;5073206;28;20491;-55
2023/09/20 11:39:28;;;;;;;38.33;36.83;;;23.20;90.70;;;;;;5073058;28;20449;-57
2023/09/20 11:42:01;;;;;;;37.83;36.40;;;23.20;90.70;;;;;;5073161;28;20442;-53
2023/09/20 11:44:28;;;;;;;37.97;36.57;;;23.20;90.70;;;;;;5072619;28;20439;-55
2023/09/20 11:46:57;;;;;;;36.93;35.53;;;23.20;90.70;;;;;;5072738;28;20439;-57
2023/09/20 11:49:26;;;;;;;36.30;34.80;;;23.20;90.70;;;;;;5072818;28;20530;-56
2023/09/20 11:51:53;;;;;;;37.17;35.77;;;23.20;90.70;;;;;;5072857;28;20443;-56
2023/09/20 11:54:26;;;;;;;36.80;35.30;;;23.20;90.70;;;;;;5072704;28;20841;-57
2023/09/20 11:56:58;;;;;;;39.90;38.30;;;23.20;90.70;;;;;;5072806;28;20486;-56
2023/09/20 11:59:24;;;;;;;38.37;36.77;;;23.20;90.60;;;;;;5072557;28;20481;-55
2023/09/20 12:01:51;;;;;;;36.60;35.20;;;23.20;90.60;;;;;;5072701;28;20482;-58
2023/09/20 12:04:20;;;;;;;37.50;36.10;;;23.30;90.60;;;;;;5072319;28;20502;-56
2023/09/20 12:06:50;;;;;;;38.77;37.27;;;23.30;90.60;;;;;;5072916;28;20439;-55
2023/09/20 12:09:18;;;;;;;38.53;37.13;;;23.30;90.60;;;;;;5072655;28;20959;-55
2023/09/20 12:11:45;;;;;;;39.53;38.07;;;23.30;90.60;;;;;;5072610;28;20450;-52
2023/09/20 12:14:13;;;;;;;38.77;37.07;;;23.30;90.60;;;;;;5072546;28;20471;-52
2023/09/20 12:16:41;;;;;;;37.77;36.37;;;23.30;90.50;;;;;;5072645;28;20528;-57
2023/09/20 12:19:08;;;;;;;37.43;35.90;;;23.30;90.60;;;;;;5072570;28;20538;-56
2023/09/20 12:21:36;;;;;;;35.63;34.33;;;23.40;90.60;;;;;;5072639;28;20860;-54
2023/09/20 12:24:04;;;;;;;38.13;36.73;;;23.40;90.60;;;;;;5072165;28;20479;-56
2023/09/20 12:26:31;;;;;;;35.90;34.50;;;23.40;90.50;;;;;;5072553;28;20469;-56
2023/09/20 12:28:58;;;;;;;35.33;33.93;;;23.40;90.60;;;;;;5072233;28;20965;-55
2023/09/20 12:31:25;;;;;;;36.50;35.07;;;23.40;90.50;;;;;;5072352;28;20498;-57
2023/09/20 12:33:52;;;;;;;37.47;36.00;;;23.40;90.50;;;;;;5072428;28;20507;-55
2023/09/20 12:36:21;;;;;;;36.13;34.73;;;23.40;90.50;;;;;;5072363;28;20486;-54
2023/09/20 12:38:49;;;;;;;36.33;34.93;;;23.40;90.40;;;;;;5072372;28;20447;-54
2023/09/20 12:41:17;;;;;;;35.67;34.27;;;23.50;90.50;;;;;;5072307;28;20830;-55
2023/09/20 12:43:44;;;;;;;36.43;35.03;;;23.50;90.40;;;;;;5072363;28;20450;-56
2023/09/20 12:46:11;;;;;;;37.10;35.70;;;23.50;90.40;;;;;;5072244;28;20832;-55
2023/09/20 12:48:38;;;;;;;35.63;34.23;;;23.50;90.40;;;;;;5072288;28;20538;-55
2023/09/20 12:51:07;;;;;;;37.50;36.10;;;23.50;90.40;;;;;;5072154;28;20470;-56
2023/09/20 12:53:34;;;;;;;34.73;33.43;;;23.50;90.40;;;;;;5072275;28;21008;-54
2023/09/20 12:56:05;;;;;;;37.07;35.67;;;23.60;90.40;;;;;;5071817;28;20525;-57
2023/09/20 12:58:32;;;;;;;34.00;32.70;;;23.50;90.30;;;;;;5072476;28;20530;-55
2023/09/20 13:00:59;;;;;;;35.20;33.90;;;23.60;90.40;;;;;;5072002;28;20443;-55
2023/09/20 13:03:28;;;;;;;37.47;36.07;;;23.60;90.40;;;;;;5071869;28;20459;-57
2023/09/20 13:05:56;;;;;;;37.17;35.77;;;23.60;90.40;;;;;;5072064;28;20921;-56
2023/09/20 13:08:24;;;;;;;36.53;35.13;;;23.60;90.30;;;;;;5071965;28;20447;-55
2023/09/20 13:10:52;;;;;;;37.57;36.17;;;23.60;90.30;;;;;;5073991;28;20444;-57
2023/09/20 13:13:20;;;;;;;39.60;38.10;;;23.70;90.40;;;;;;5075907;28;20553;-54
2023/09/20 13:15:47;;;;;;;41.13;39.63;;;23.70;90.40;;;;;;5075642;28;20856;-55